Time;durP1;ratioP1;P1;durP2;ratioP2;P2;SDS_P1;SDS_P2;PMS_P1;PMS_P2;Temp;Humidity;BMP_temperature;BMP_pressure;BME280_temperature;BME280_humidity;BME280_pressure;Samples;Min_cycle;Max_cycle;Signal;HPM_P1;HPM_P2
2021/12/06 00:01:54;;;;;;;31.92;20.40;;;3.80;99.90;;;;;;5134294;27;20082;-57
2021/12/06 00:04:25;;;;;;;31.65;19.35;;;3.90;99.90;;;;;;5133668;27;20064;-57
2021/12/06 00:06:56;;;;;;;29.23;19.08;;;3.80;99.90;;;;;;5134000;27;20104;-56
2021/12/06 00:09:24;;;;;;;32.58;19.58;;;3.80;99.90;;;;;;5133473;27;20039;-57
2021/12/06 00:11:56;;;;;;;29.83;19.98;;;3.80;99.90;;;;;;5133847;27;20035;-57
2021/12/06 00:14:28;;;;;;;33.42;20.05;;;3.80;99.90;;;;;;5133477;27;20088;-57
2021/12/06 00:16:56;;;;;;;36.10;21.05;;;3.80;99.90;;;;;;5133946;27;20031;-56
2021/12/06 00:19:22;;;;;;;31.80;19.73;;;3.80;99.90;;;;;;5133712;27;20042;-57
2021/12/06 00:21:49;;;;;;;32.65;20.92;;;3.80;99.90;;;;;;5133936;27;20035;-57
2021/12/06 00:24:14;;;;;;;;;;;3.80;99.90;;;;;;5133293;27;20031;-57
2021/12/06 00:26:40;;;;;;;30.77;20.08;;;3.80;99.90;;;;;;5133830;27;19919;-57
2021/12/06 00:29:05;;;;;;;34.57;21.90;;;3.80;99.90;;;;;;5133136;27;20062;-56
2021/12/06 00:31:33;;;;;;;34.03;20.60;;;3.80;99.90;;;;;;5133814;27;20039;-56
2021/12/06 00:34:04;;;;;;;35.33;20.17;;;3.80;99.90;;;;;;5133056;27;20039;-56
2021/12/06 00:36:32;;;;;;;34.15;21.77;;;3.80;99.90;;;;;;5133320;27;20091;-57
2021/12/06 00:38:59;;;;;;;38.63;21.83;;;3.80;99.90;;;;;;5133305;27;20043;-57
2021/12/06 00:41:25;;;;;;;39.55;22.27;;;3.80;99.90;;;;;;5133680;27;20055;-57
2021/12/06 00:43:51;;;;;;;36.03;21.92;;;3.80;99.90;;;;;;5132731;27;20607;-56
2021/12/06 00:46:17;;;;;;;40.15;22.77;;;3.70;99.90;;;;;;5133003;27;20145;-56
2021/12/06 00:48:43;;;;;;;42.65;22.48;;;3.80;99.90;;;;;;5132148;27;20403;-56
2021/12/06 00:51:11;;;;;;;38.70;22.33;;;3.70;99.90;;;;;;5134274;27;20042;-57
2021/12/06 00:53:37;;;;;;;41.70;23.58;;;3.70;99.90;;;;;;5114312;27;20118;-56
2021/12/06 00:56:03;;;;;;;41.78;22.48;;;3.70;99.90;;;;;;5132990;27;20028;-53
2021/12/06 00:58:29;;;;;;;39.17;20.73;;;3.70;99.90;;;;;;5132402;27;20412;-55
2021/12/06 01:00:55;;;;;;;39.03;22.90;;;3.70;99.90;;;;;;5133262;27;20042;-55
2021/12/06 01:03:27;;;;;;;41.22;23.58;;;3.70;99.90;;;;;;5128736;27;20088;-55
2021/12/06 01:05:53;;;;;;;40.90;23.42;;;3.70;99.90;;;;;;5133216;27;20054;-55
2021/12/06 01:08:19;;;;;;;39.67;24.80;;;3.70;99.90;;;;;;5132395;27;20495;-56
2021/12/06 01:10:46;;;;;;;42.95;23.67;;;3.70;99.90;;;;;;5133318;27;20031;-57
2021/12/06 01:13:12;;;;;;;38.05;22.25;;;3.70;99.90;;;;;;5131937;27;20038;-56
2021/12/06 01:15:38;;;;;;;40.03;22.23;;;3.70;99.90;;;;;;5133106;27;20031;-57
2021/12/06 01:18:07;;;;;;;40.17;21.52;;;3.70;99.90;;;;;;5131942;27;20073;-56
2021/12/06 01:20:40;;;;;;;47.53;25.05;;;3.70;99.90;;;;;;5132549;27;20039;-57
2021/12/06 01:23:09;;;;;;;42.58;23.90;;;3.70;99.90;;;;;;5130621;27;20035;-57
2021/12/06 01:25:47;;;;;;;41.92;21.58;;;3.60;99.90;;;;;;5132849;27;20039;-57
2021/12/06 01:28:35;;;;;;;;;;;3.60;99.90;;;;;;5132581;27;20087;-57
2021/12/06 01:39:18;;;;;;;48.78;24.50;;;3.60;99.90;;;;;;5131432;27;20035;-56
2021/12/06 01:41:49;;;;;;;47.70;23.60;;;3.60;99.90;;;;;;5130488;27;20038;-56
2021/12/06 01:44:22;;;;;;;48.10;24.80;;;3.60;99.90;;;;;;5130996;27;20042;-56
2021/12/06 01:47:10;;;;;;;43.33;23.85;;;3.50;99.90;;;;;;5113905;27;20120;-57
2021/12/06 01:49:39;;;;;;;50.63;24.98;;;3.50;99.90;;;;;;5130997;27;20092;-57
2021/12/06 01:52:14;;;;;;;56.13;24.83;;;3.50;99.90;;;;;;5131905;27;20034;-55
2021/12/06 01:54:40;;;;;;;47.75;23.45;;;3.50;99.90;;;;;;5131043;27;20214;-56
2021/12/06 01:57:06;;;;;;;48.10;24.48;;;3.40;99.90;;;;;;5131244;27;20044;-57
2021/12/06 01:59:32;;;;;;;54.00;25.60;;;3.50;99.90;;;;;;5112438;27;20031;-57
2021/12/06 02:01:58;;;;;;;58.30;27.27;;;3.40;99.90;;;;;;5131837;27;20100;-56
2021/12/06 02:04:24;;;;;;;43.47;23.27;;;3.50;99.90;;;;;;5130953;27;20054;-57
2021/12/06 02:06:50;;;;;;;;;;;3.40;99.90;;;;;;5132645;27;20280;-57
2021/12/06 02:09:18;;;;;;;48.25;24.98;;;3.40;99.90;;;;;;5131024;27;19919;-56
2021/12/06 02:11:45;;;;;;;52.65;26.95;;;3.40;99.90;;;;;;5131850;27;20031;-57
2021/12/06 02:17:16;;;;;;;54.38;26.77;;;3.40;99.90;;;;;;5085630;27;20435;-56
2021/12/06 02:19:49;;;;;;;61.80;26.90;;;3.50;99.90;;;;;;5131307;27;20047;-56
2021/12/06 02:22:24;;;;;;;60.17;28.58;;;3.50;99.90;;;;;;5132005;27;20399;-57
2021/12/06 02:24:53;;;;;;;54.30;28.35;;;3.50;99.90;;;;;;5130739;27;20047;-56
2021/12/06 02:27:21;;;;;;;55.95;27.10;;;3.50;99.90;;;;;;5131364;27;20491;-56
2021/12/06 02:29:48;;;;;;;60.92;29.23;;;3.40;99.90;;;;;;5131139;27;20042;-57
2021/12/06 02:32:15;;;;;;;65.80;27.90;;;3.50;99.90;;;;;;5131384;27;20484;-56
2021/12/06 02:34:42;;;;;;;;;;;3.50;99.90;;;;;;5131114;27;20500;-56
2021/12/06 02:37:09;;;;;;;56.60;27.20;;;3.40;99.90;;;;;;5131158;27;19965;-55
2021/12/06 02:39:36;;;;;;;63.50;30.73;;;3.40;99.90;;;;;;5130536;27;20205;-53
2021/12/06 02:42:02;;;;;;;60.83;29.45;;;3.40;99.90;;;;;;5131460;27;20043;-55
2021/12/06 02:44:28;;;;;;;66.15;27.35;;;3.40;99.90;;;;;;5130827;27;20499;-54
2021/12/06 02:46:54;;;;;;;61.97;29.73;;;3.40;99.90;;;;;;5131108;27;20043;-55
2021/12/06 02:49:20;;;;;;;68.65;30.58;;;3.40;99.90;;;;;;5130519;27;20039;-55
2021/12/06 02:51:46;;;;;;;58.03;28.67;;;3.40;99.90;;;;;;5131064;27;20163;-55
2021/12/06 02:54:12;;;;;;;65.63;30.10;;;3.40;99.90;;;;;;5130047;27;20273;-55
2021/12/06 02:57:18;;;;;;;71.35;30.70;;;3.40;99.90;;;;;;5130602;28;20039;-55
2021/12/06 02:59:42;;;;;;;61.72;29.02;;;3.50;99.90;;;;;;5129799;28;20166;-53
2021/12/06 03:02:11;;;;;;;66.18;31.13;;;3.40;99.90;;;;;;5130721;28;20127;-54
2021/12/06 03:04:38;;;;;;;64.85;30.52;;;3.40;99.90;;;;;;5129634;28;20047;-55
2021/12/06 03:07:05;;;;;;;72.45;31.35;;;3.40;99.90;;;;;;5131072;28;20043;-55
2021/12/06 03:09:35;;;;;;;74.45;31.48;;;3.40;99.90;;;;;;5132343;27;20074;-55
2021/12/06 03:12:15;;;;;;;72.47;33.75;;;3.40;99.90;;;;;;5135206;27;20042;-55
2021/12/06 03:14:48;;;;;;;80.63;32.72;;;3.40;99.90;;;;;;5134496;27;20083;-53
2021/12/06 03:17:17;;;;;;;71.30;33.83;;;3.40;99.90;;;;;;5134779;27;20070;-55
2021/12/06 03:19:44;;;;;;;70.53;32.72;;;3.40;99.90;;;;;;5134807;27;20442;-56
2021/12/06 03:22:12;;;;;;;79.13;36.42;;;3.40;99.90;;;;;;5134920;27;20495;-56
2021/12/06 03:24:39;;;;;;;75.57;34.85;;;3.40;99.90;;;;;;5134173;27;20046;-55
2021/12/06 03:27:05;;;;;;;86.50;37.83;;;3.40;99.90;;;;;;5135082;27;20055;-55
2021/12/06 03:29:31;;;;;;;86.47;35.47;;;3.40;99.90;;;;;;5133782;27;20484;-55
2021/12/06 03:31:57;;;;;;;80.10;33.85;;;3.30;99.90;;;;;;5135380;27;20058;-56
2021/12/06 03:34:26;;;;;;;79.28;34.88;;;3.30;99.90;;;;;;5134152;27;20042;-57
2021/12/06 03:36:57;;;;;;;81.35;36.25;;;3.30;99.90;;;;;;5134805;27;20112;-56
2021/12/06 03:39:27;;;;;;;84.25;33.95;;;3.30;99.90;;;;;;5133947;27;20532;-56
2021/12/06 03:41:56;;;;;;;78.88;35.08;;;3.40;99.90;;;;;;5135263;27;20043;-56
2021/12/06 03:44:23;;;;;;;72.05;35.17;;;3.40;99.90;;;;;;5115237;27;20131;-55
2021/12/06 03:46:53;;;;;;;83.82;36.78;;;3.40;99.90;;;;;;5135362;27;20066;-55
2021/12/06 03:49:19;;;;;;;91.72;37.97;;;3.40;99.90;;;;;;5134220;27;20496;-54
2021/12/06 03:51:46;;;;;;;81.75;35.03;;;3.40;99.90;;;;;;5134839;27;20089;-55
2021/12/06 03:54:16;;;;;;;70.38;32.83;;;3.40;99.90;;;;;;5133029;27;20035;-53
2021/12/06 03:56:43;;;;;;;81.65;37.35;;;3.40;99.90;;;;;;5133493;27;20492;-54
2021/12/06 03:59:08;;;;;;;87.10;37.10;;;3.40;99.90;;;;;;5133720;27;20043;-56
2021/12/06 04:01:34;;;;;;;83.37;35.50;;;3.40;99.90;;;;;;5134559;27;20535;-56
2021/12/06 04:04:01;;;;;;;92.13;36.97;;;3.40;99.90;;;;;;5133562;27;20039;-53
2021/12/06 04:06:27;;;;;;;84.35;37.85;;;3.40;99.90;;;;;;5133917;27;20288;-55
2021/12/06 04:08:53;;;;;;;86.38;37.60;;;3.40;99.90;;;;;;5133234;27;20460;-56
2021/12/06 04:11:18;;;;;;;82.13;37.53;;;3.40;99.90;;;;;;5133665;27;20118;-54
2021/12/06 04:13:44;;;;;;;95.80;39.90;;;3.40;99.90;;;;;;5133452;27;20042;-56
2021/12/06 04:16:10;;;;;;;81.30;38.03;;;3.40;99.90;;;;;;5134174;27;20118;-55
2021/12/06 04:18:36;;;;;;;84.03;38.55;;;3.40;99.90;;;;;;5133330;27;20296;-55
2021/12/06 04:21:04;;;;;;;95.17;39.80;;;3.40;99.90;;;;;;5132732;27;20043;-55
2021/12/06 04:23:30;;;;;;;84.80;36.70;;;3.40;99.90;;;;;;5133034;27;20746;-55
2021/12/06 04:25:56;;;;;;;96.72;40.05;;;3.40;99.90;;;;;;5133464;27;20047;-55
2021/12/06 04:28:22;;;;;;;92.33;39.13;;;3.40;99.90;;;;;;5133101;27;20507;-55
2021/12/06 04:30:48;;;;;;;75.27;34.90;;;3.40;99.90;;;;;;5133912;27;20194;-56
2021/12/06 04:33:15;;;;;;;89.88;39.05;;;3.40;99.90;;;;;;5133058;27;20045;-56
2021/12/06 04:35:41;;;;;;;96.45;39.97;;;3.40;99.90;;;;;;5133481;27;20488;-56
2021/12/06 04:38:08;;;;;;;92.47;39.97;;;3.40;99.90;;;;;;5132968;27;20043;-55
2021/12/06 04:40:35;;;;;;;100.75;41.00;;;3.40;99.90;;;;;;5133230;27;20444;-55
2021/12/06 04:43:01;;;;;;;89.72;40.47;;;3.30;99.90;;;;;;5133332;27;20043;-55
2021/12/06 04:45:27;;;;;;;88.22;40.10;;;3.30;99.90;;;;;;5133312;27;20031;-54
2021/12/06 04:47:53;;;;;;;92.35;37.95;;;3.30;99.90;;;;;;5132654;27;20522;-56
2021/12/06 04:50:24;;;;;;;90.43;40.22;;;3.30;99.90;;;;;;5133447;27;20385;-55
2021/12/06 04:52:52;;;;;;;84.05;38.50;;;3.30;99.90;;;;;;5132903;27;20098;-56
2021/12/06 04:55:26;;;;;;;86.15;36.38;;;3.30;99.90;;;;;;5132829;27;20125;-55
2021/12/06 04:57:52;;;;;;;89.43;40.20;;;3.30;99.90;;;;;;5132374;27;20041;-56
2021/12/06 05:00:28;;;;;;;92.53;40.20;;;3.20;99.90;;;;;;5133219;27;20072;-55
2021/12/06 05:02:54;;;;;;;100.18;40.78;;;3.20;99.90;;;;;;5132985;27;20360;-54
2021/12/06 05:05:29;;;;;;;96.78;41.10;;;3.20;99.90;;;;;;5132016;27;20054;-54
2021/12/06 05:08:18;;;;;;;79.93;34.30;;;3.20;99.90;;;;;;5131209;27;20077;-52
2021/12/06 05:10:44;;;;;;;83.97;35.30;;;3.20;99.90;;;;;;5132327;27;20035;-54
2021/12/06 05:13:10;;;;;;;80.35;36.17;;;3.20;99.90;;;;;;5131764;27;20049;-56
2021/12/06 05:15:36;;;;;;;84.75;36.42;;;3.10;99.90;;;;;;5132989;27;20080;-55
2021/12/06 05:18:03;;;;;;;83.05;36.45;;;3.10;99.90;;;;;;5131750;27;20050;-55
2021/12/06 05:20:29;;;;;;;83.25;36.97;;;3.10;99.90;;;;;;5133239;27;20050;-56
2021/12/06 05:22:56;;;;;;;82.73;34.17;;;3.10;99.90;;;;;;5133037;27;20039;-54
2021/12/06 05:25:23;;;;;;;72.75;33.78;;;3.10;99.90;;;;;;5132458;27;20488;-55
2021/12/06 05:27:49;;;;;;;81.32;36.63;;;3.10;99.90;;;;;;5132104;27;20039;-56
2021/12/06 05:30:16;;;;;;;91.25;38.88;;;3.00;99.90;;;;;;5132325;27;20043;-55
2021/12/06 05:32:43;;;;;;;75.65;34.55;;;3.00;99.90;;;;;;5132530;27;20050;-55
2021/12/06 05:35:10;;;;;;;77.65;33.50;;;3.00;99.90;;;;;;5131961;27;20080;-53
2021/12/06 05:37:54;;;;;;;84.60;36.50;;;3.00;99.90;;;;;;5132310;27;20041;-56
2021/12/06 05:40:30;;;;;;;85.35;36.80;;;3.00;99.90;;;;;;5132368;27;20496;-55
2021/12/06 05:42:57;;;;;;;82.82;36.35;;;3.00;99.90;;;;;;5132024;27;20039;-55
2021/12/06 05:45:23;;;;;;;;;;;3.00;99.90;;;;;;5132273;27;20117;-56
2021/12/06 05:47:49;;;;;;;79.33;33.03;;;3.00;99.90;;;;;;5131722;27;19961;-57
2021/12/06 05:50:16;;;;;;;78.23;32.93;;;3.00;99.90;;;;;;5132171;27;20120;-56
2021/12/06 05:52:42;;;;;;;89.72;39.53;;;3.00;99.90;;;;;;5132541;27;20264;-57
2021/12/06 05:55:08;;;;;;;87.40;40.63;;;3.00;99.90;;;;;;5131457;27;20454;-56
2021/12/06 05:57:35;;;;;;;85.82;36.55;;;2.90;99.90;;;;;;5131570;27;20043;-56
2021/12/06 06:00:04;;;;;;;90.07;38.28;;;2.90;99.90;;;;;;5131649;27;20046;-56
2021/12/06 06:02:30;;;;;;;85.90;36.38;;;2.90;99.90;;;;;;5131992;27;20472;-56
2021/12/06 06:04:55;;;;;;;79.68;37.10;;;2.90;99.90;;;;;;5131252;27;20070;-56
2021/12/06 06:07:21;;;;;;;76.30;34.00;;;2.90;99.90;;;;;;5131747;27;20057;-56
2021/12/06 06:09:46;;;;;;;81.13;36.10;;;2.80;99.90;;;;;;5131278;27;20039;-56
2021/12/06 06:12:12;;;;;;;78.90;34.90;;;2.90;99.90;;;;;;5131495;27;20246;-56
2021/12/06 06:14:38;;;;;;;85.30;35.03;;;2.80;99.90;;;;;;5131034;27;20035;-56
2021/12/06 06:17:09;;;;;;;84.60;35.80;;;2.80;99.90;;;;;;5131620;27;20373;-56
2021/12/06 06:19:38;;;;;;;86.45;39.22;;;2.90;99.90;;;;;;5131231;27;20050;-56
2021/12/06 06:22:03;;;;;;;97.93;41.20;;;2.80;99.90;;;;;;5131508;27;20035;-56
2021/12/06 06:24:29;;;;;;;105.07;41.27;;;2.80;99.90;;;;;;5130579;27;20042;-56
2021/12/06 06:26:54;;;;;;;115.67;43.70;;;2.80;99.90;;;;;;5131513;27;20046;-57
2021/12/06 06:29:20;;;;;;;95.53;40.30;;;2.80;99.90;;;;;;5131062;27;20099;-56
2021/12/06 06:31:46;;;;;;;91.90;40.60;;;2.80;99.90;;;;;;5131334;27;20039;-56
2021/12/06 06:34:12;;;;;;;99.53;42.67;;;2.70;99.90;;;;;;5130784;27;20028;-56
2021/12/06 06:36:37;;;;;;;97.35;40.70;;;2.70;99.90;;;;;;5131112;27;20567;-56
2021/12/06 06:39:06;;;;;;;104.88;40.08;;;2.60;99.90;;;;;;5130551;27;20118;-56
2021/12/06 06:41:32;;;;;;;88.97;39.47;;;2.60;99.90;;;;;;5131464;27;20046;-56
2021/12/06 06:43:58;;;;;;;95.32;39.28;;;2.60;99.90;;;;;;5130545;27;20404;-56
2021/12/06 06:46:24;;;;;;;105.65;41.90;;;2.60;99.90;;;;;;5131590;27;20043;-56
2021/12/06 06:48:49;;;;;;;92.95;40.55;;;2.50;99.90;;;;;;5130478;27;20038;-55
2021/12/06 06:51:15;;;;;;;96.17;41.13;;;2.60;99.90;;;;;;5131228;27;20031;-54
2021/12/06 06:53:41;;;;;;;97.05;39.88;;;2.60;99.90;;;;;;5129492;27;20076;-55
2021/12/06 06:56:07;;;;;;;91.65;38.33;;;2.50;99.90;;;;;;5126793;27;20039;-55
2021/12/06 06:58:33;;;;;;;95.57;39.78;;;2.60;99.90;;;;;;5130366;28;20034;-55
2021/12/06 07:00:59;;;;;;;92.57;36.30;;;2.50;99.90;;;;;;5130648;28;20042;-54
2021/12/06 07:03:24;;;;;;;73.32;33.53;;;2.50;99.90;;;;;;5130127;28;20281;-55
2021/12/06 07:05:50;;;;;;;78.13;34.43;;;2.50;99.90;;;;;;5130333;28;20031;-55
2021/12/06 07:08:16;;;;;;;75.22;32.85;;;2.50;99.90;;;;;;5129203;28;20536;-54
2021/12/06 07:10:42;;;;;;;84.38;33.47;;;2.40;99.90;;;;;;5129693;28;20126;-53
2021/12/06 07:13:11;;;;;;;86.13;35.28;;;2.40;99.90;;;;;;5129626;27;20039;-55
2021/12/06 07:15:37;;;;;;;103.25;46.17;;;2.40;99.90;;;;;;5126459;28;20042;-55
2021/12/06 07:18:04;;;;;;;117.90;49.25;;;2.40;99.90;;;;;;5130097;28;20106;-54
2021/12/06 07:20:32;;;;;;;121.35;51.10;;;2.40;99.90;;;;;;5130554;28;20038;-56
2021/12/06 07:22:58;;;;;;;129.50;53.72;;;2.40;99.90;;;;;;5129990;28;20035;-57
2021/12/06 07:25:24;;;;;;;129.07;49.30;;;2.30;99.90;;;;;;5124509;28;20039;-57
2021/12/06 07:27:52;;;;;;;131.90;51.78;;;2.40;99.90;;;;;;5124300;28;20050;-54
2021/12/06 07:30:19;;;;;;;161.05;59.67;;;2.40;99.90;;;;;;5130429;28;20372;-57
2021/12/06 07:32:46;;;;;;;136.05;55.97;;;2.40;99.90;;;;;;5130219;28;20039;-57
2021/12/06 07:35:13;;;;;;;147.23;56.58;;;2.40;99.90;;;;;;5128996;28;20031;-56
2021/12/06 07:37:38;;;;;;;143.45;56.65;;;2.40;99.90;;;;;;5129620;28;20489;-58
2021/12/06 07:40:08;;;;;;;145.60;58.20;;;2.30;99.90;;;;;;5129801;28;20100;-57
2021/12/06 07:42:34;;;;;;;149.80;58.53;;;2.40;99.90;;;;;;5130041;28;20071;-57
2021/12/06 07:45:00;;;;;;;143.18;55.28;;;2.40;99.90;;;;;;5129044;28;20084;-57
2021/12/06 07:47:26;;;;;;;167.48;61.47;;;2.40;99.90;;;;;;5129963;28;20046;-57
2021/12/06 07:49:51;;;;;;;159.70;58.93;;;2.40;99.90;;;;;;5129224;28;20043;-57
2021/12/06 07:52:17;;;;;;;142.50;56.73;;;2.30;99.90;;;;;;5129592;28;20513;-55
2021/12/06 07:54:43;;;;;;;161.80;60.77;;;2.40;99.90;;;;;;5129928;27;20108;-54
2021/12/06 07:57:09;;;;;;;151.63;60.67;;;2.30;99.90;;;;;;5127554;27;20386;-54
2021/12/06 07:59:37;;;;;;;153.27;58.70;;;2.30;99.90;;;;;;5119098;27;20058;-56
2021/12/06 08:02:05;;;;;;;167.80;62.92;;;2.30;99.90;;;;;;5123449;27;20031;-55
2021/12/06 08:04:31;;;;;;;159.82;60.70;;;2.30;99.90;;;;;;5126662;27;20127;-55
2021/12/06 08:06:57;;;;;;;;;;;2.30;99.90;;;;;;5127291;27;20059;-56
2021/12/06 08:09:22;;;;;;;118.65;48.67;;;2.30;99.90;;;;;;5127591;27;20416;-52
2021/12/06 08:11:48;;;;;;;124.73;52.03;;;2.30;99.90;;;;;;5127218;27;20490;-54
2021/12/06 08:14:14;;;;;;;124.95;52.17;;;2.30;99.90;;;;;;5127540;27;20032;-53
2021/12/06 08:16:43;;;;;;;100.20;47.23;;;2.40;99.90;;;;;;5125208;27;20411;-56
2021/12/06 08:19:10;;;;;;;102.43;44.70;;;2.30;99.90;;;;;;5125819;27;20227;-53
2021/12/06 08:21:37;;;;;;;124.30;50.22;;;2.30;99.90;;;;;;5129022;27;20039;-53
2021/12/06 08:24:03;;;;;;;123.68;52.92;;;2.30;99.90;;;;;;5128879;27;20119;-52
2021/12/06 08:26:32;;;;;;;102.55;41.72;;;2.30;99.90;;;;;;5129553;27;20114;-50
2021/12/06 08:29:00;;;;;;;122.03;40.78;;;2.30;99.90;;;;;;5128178;27;20039;-50
2021/12/06 08:31:27;;;;;;;92.85;39.60;;;2.40;99.90;;;;;;5129169;27;20106;-53
2021/12/06 08:33:53;;;;;;;85.20;37.42;;;2.40;99.90;;;;;;5127653;27;20588;-54
2021/12/06 08:36:20;;;;;;;97.95;41.45;;;2.40;99.90;;;;;;5129521;27;20128;-55
2021/12/06 08:38:47;;;;;;;106.45;41.67;;;2.40;99.90;;;;;;5128120;27;20379;-54
2021/12/06 08:41:16;;;;;;;109.88;43.55;;;2.40;99.90;;;;;;5129273;27;20038;-54
2021/12/06 08:43:43;;;;;;;106.05;43.70;;;2.40;99.90;;;;;;5128342;27;20035;-53
2021/12/06 08:46:22;;;;;;;96.13;37.47;;;2.30;99.90;;;;;;5129070;27;20454;-55
2021/12/06 08:48:50;;;;;;;111.10;43.92;;;2.30;99.90;;;;;;5126684;27;20539;-51
2021/12/06 08:51:22;;;;;;;133.27;49.50;;;2.30;99.90;;;;;;5128279;27;20039;-53
2021/12/06 08:53:49;;;;;;;108.88;40.03;;;2.30;99.90;;;;;;5128363;27;20316;-53
2021/12/06 08:56:15;;;;;;;92.50;37.03;;;2.30;99.90;;;;;;5129055;27;20105;-53
2021/12/06 08:58:41;;;;;;;74.03;32.67;;;2.30;99.90;;;;;;5127422;27;20070;-54
2021/12/06 09:01:07;;;;;;;74.53;30.67;;;2.30;99.90;;;;;;5127276;27;20035;-54
2021/12/06 09:03:34;;;;;;;67.47;28.42;;;2.30;99.90;;;;;;5127999;27;20114;-54
2021/12/06 09:06:01;;;;;;;69.90;30.52;;;2.30;99.90;;;;;;5127946;27;20511;-56
2021/12/06 09:08:27;;;;;;;78.82;32.03;;;2.30;99.90;;;;;;5126494;27;20033;-56
2021/12/06 09:10:53;;;;;;;90.82;36.95;;;2.30;99.90;;;;;;5126826;27;20437;-56
2021/12/06 09:13:21;;;;;;;85.55;34.17;;;2.30;99.90;;;;;;5125792;27;20102;-56
2021/12/06 09:15:47;;;;;;;67.65;29.70;;;2.30;99.90;;;;;;5125799;27;20503;-57
2021/12/06 09:18:13;;;;;;;57.55;26.75;;;2.30;99.90;;;;;;5126181;27;20476;-57
2021/12/06 09:20:42;;;;;;;75.65;33.40;;;2.30;99.90;;;;;;5126272;27;20024;-56
2021/12/06 09:23:09;;;;;;;59.67;27.60;;;2.30;99.90;;;;;;5122339;27;20050;-57
2021/12/06 09:25:37;;;;;;;75.03;29.13;;;2.30;99.90;;;;;;5127992;27;20093;-56
2021/12/06 09:28:03;;;;;;;63.00;27.67;;;2.40;99.90;;;;;;5126544;27;20043;-56
2021/12/06 09:30:31;;;;;;;53.33;26.65;;;2.30;99.90;;;;;;5126197;27;20046;-57
2021/12/06 09:32:59;;;;;;;48.67;24.33;;;2.30;99.90;;;;;;5123571;27;20066;-56
2021/12/06 09:35:28;;;;;;;46.95;23.77;;;2.30;99.90;;;;;;5126892;27;20043;-57
2021/12/06 09:37:57;;;;;;;51.95;25.88;;;2.30;99.90;;;;;;5125662;27;20035;-56
2021/12/06 09:40:24;;;;;;;48.30;23.58;;;2.30;99.90;;;;;;5126695;27;20067;-56
2021/12/06 09:42:51;;;;;;;53.25;25.60;;;2.30;99.90;;;;;;5127329;27;20079;-57
2021/12/06 09:45:19;;;;;;;;;;;2.30;99.90;;;;;;5130548;27;20291;-56
2021/12/06 09:47:51;;;;;;;60.58;28.52;;;2.30;99.90;;;;;;5119054;27;20407;-56
2021/12/06 09:50:21;;;;;;;59.55;28.02;;;2.40;99.90;;;;;;5125859;27;20470;-56
2021/12/06 09:52:47;;;;;;;64.53;30.38;;;2.40;99.90;;;;;;5126432;27;20031;-56
2021/12/06 09:55:13;;;;;;;53.78;27.60;;;2.40;99.90;;;;;;5125022;27;20478;-56
2021/12/06 09:57:39;;;;;;;59.50;27.27;;;2.50;99.90;;;;;;5124946;27;20035;-56
2021/12/06 10:00:07;;;;;;;50.83;25.00;;;2.50;99.90;;;;;;5126734;27;20035;-57
2021/12/06 10:02:33;;;;;;;50.88;24.40;;;2.60;99.90;;;;;;5126437;27;20284;-56
2021/12/06 10:04:59;;;;;;;53.37;24.30;;;2.60;99.90;;;;;;5124339;27;20046;-55
2021/12/06 10:07:26;;;;;;;50.35;23.05;;;2.60;99.90;;;;;;5125609;27;20080;-54
2021/12/06 10:09:54;;;;;;;55.05;25.73;;;2.70;99.90;;;;;;5125222;27;20074;-56
2021/12/06 10:12:22;;;;;;;50.83;25.10;;;2.80;99.90;;;;;;5123522;27;20031;-56
2021/12/06 10:14:48;;;;;;;52.53;25.00;;;2.80;99.90;;;;;;5124946;27;20033;-56
2021/12/06 10:17:15;;;;;;;57.25;28.75;;;2.80;99.90;;;;;;5123640;27;20038;-56
2021/12/06 10:19:42;;;;;;;50.53;27.20;;;2.80;99.90;;;;;;5123967;27;20126;-56
2021/12/06 10:22:08;;;;;;;57.75;29.90;;;2.80;99.90;;;;;;5125348;27;20042;-56
2021/12/06 10:24:33;;;;;;;51.90;27.52;;;2.70;99.90;;;;;;5125824;27;20035;-56
2021/12/06 10:27:12;;;;;;;53.20;26.70;;;2.70;99.90;;;;;;5124939;27;20035;-56
2021/12/06 10:29:44;;;;;;;50.95;27.73;;;2.70;99.90;;;;;;5125274;27;20031;-56
2021/12/06 10:32:18;;;;;;;49.45;26.60;;;2.70;99.90;;;;;;5121556;27;20032;-56
2021/12/06 10:34:52;;;;;;;48.85;24.25;;;2.80;99.90;;;;;;5121819;27;20042;-56
2021/12/06 10:37:33;;;;;;;55.30;25.55;;;2.80;99.90;;;;;;5122579;27;20070;-56
2021/12/06 10:39:59;;;;;;;40.75;21.08;;;2.80;99.90;;;;;;5123983;27;20121;-56
2021/12/06 10:42:31;;;;;;;49.40;24.40;;;2.90;99.90;;;;;;5123485;27;20049;-56
2021/12/06 10:45:11;;;;;;;43.28;23.60;;;2.90;99.90;;;;;;5124854;27;20104;-56
2021/12/06 10:47:38;;;;;;;48.03;24.02;;;3.00;99.90;;;;;;5125273;27;20556;-55
2021/12/06 10:50:15;;;;;;;43.53;22.77;;;3.00;99.90;;;;;;5125134;27;20089;-52
2021/12/06 10:53:07;;;;;;;45.63;24.25;;;3.00;99.90;;;;;;5125347;27;20066;-53
2021/12/06 10:55:34;;;;;;;47.47;22.15;;;3.00;99.90;;;;;;5118696;27;20359;-54
2021/12/06 10:58:07;;;;;;;44.47;19.02;;;3.00;99.90;;;;;;5124366;27;20115;-54
2021/12/06 11:00:43;;;;;;;41.08;21.50;;;3.10;99.90;;;;;;5124660;28;20084;-54
2021/12/06 11:03:23;;;;;;;44.00;22.30;;;3.00;99.90;;;;;;5123413;27;20050;-55
2021/12/06 11:05:54;;;;;;;38.55;20.25;;;3.00;99.90;;;;;;5122009;28;20066;-55
2021/12/06 11:08:20;;;;;;;46.47;23.42;;;3.00;99.90;;;;;;5124564;28;20039;-54
2021/12/06 11:11:13;;;;;;;39.67;20.75;;;2.90;99.90;;;;;;5120651;28;20113;-53
2021/12/06 11:13:49;;;;;;;43.20;20.38;;;3.00;99.90;;;;;;5115840;27;20043;-52
2021/12/06 11:16:29;;;;;;;40.25;19.38;;;3.00;99.90;;;;;;5124957;27;20560;-53
2021/12/06 11:19:01;;;;;;;39.97;17.83;;;3.00;99.90;;;;;;5123968;28;20492;-53
2021/12/06 11:21:33;;;;;;;41.63;21.13;;;3.00;99.90;;;;;;5124641;28;20031;-56
2021/12/06 11:24:05;;;;;;;42.92;20.67;;;3.00;99.90;;;;;;5124212;27;20088;-56
2021/12/06 11:26:32;;;;;;;40.80;19.67;;;3.00;99.90;;;;;;5125335;28;20054;-56
2021/12/06 11:29:09;;;;;;;43.40;19.58;;;3.10;99.90;;;;;;5123974;28;20104;-56
2021/12/06 11:31:35;;;;;;;43.63;20.33;;;3.10;99.90;;;;;;5126300;27;20058;-54
2021/12/06 11:34:05;;;;;;;45.50;22.42;;;3.10;99.90;;;;;;5127552;27;20415;-55
2021/12/06 11:36:31;;;;;;;46.30;21.20;;;3.10;99.90;;;;;;5127705;27;20497;-53
2021/12/06 11:39:19;;;;;;;41.45;20.00;;;3.20;99.90;;;;;;5129664;27;20488;-54
2021/12/06 11:41:49;;;;;;;44.30;20.85;;;3.20;99.90;;;;;;5124844;27;20043;-54
2021/12/06 11:44:19;;;;;;;36.05;19.02;;;3.20;99.90;;;;;;5131489;27;20043;-55
2021/12/06 11:46:46;;;;;;;44.55;22.10;;;3.30;99.90;;;;;;5133547;27;20159;-56
2021/12/06 11:49:17;;;;;;;43.60;20.63;;;3.30;99.90;;;;;;5132584;27;20039;-55
2021/12/06 11:51:42;;;;;;;45.58;22.75;;;3.40;99.90;;;;;;5129308;27;20039;-55
2021/12/06 11:54:09;;;;;;;48.60;21.40;;;3.40;99.90;;;;;;5129369;27;20035;-55
2021/12/06 11:56:42;;;;;;;;;;;3.40;99.90;;;;;;5133117;27;20027;-56
2021/12/06 11:59:09;;;;;;;54.42;25.00;;;3.50;99.90;;;;;;5132276;27;19966;-56
2021/12/06 12:01:42;;;;;;;43.97;22.63;;;3.60;99.90;;;;;;5132459;27;20034;-56
2021/12/06 12:04:21;;;;;;;46.22;22.65;;;3.60;99.90;;;;;;5130715;27;20039;-56
2021/12/06 12:07:00;;;;;;;45.45;22.80;;;3.70;99.90;;;;;;5129723;27;20050;-56
2021/12/06 12:09:28;;;;;;;52.67;25.65;;;3.70;99.90;;;;;;5126509;27;20031;-56
2021/12/06 12:12:12;;;;;;;53.05;28.48;;;3.70;99.90;;;;;;5130683;27;20046;-56
2021/12/06 12:14:45;;;;;;;55.28;28.88;;;3.70;99.90;;;;;;5128818;27;20446;-56
2021/12/06 12:17:18;;;;;;;57.45;29.58;;;3.70;99.90;;;;;;5131847;27;20035;-56
2021/12/06 12:19:47;;;;;;;54.00;28.50;;;3.70;99.90;;;;;;5129027;27;20049;-55
2021/12/06 12:22:15;;;;;;;59.50;32.55;;;3.70;99.90;;;;;;5131893;27;20082;-56
2021/12/06 12:24:45;;;;;;;59.83;31.73;;;3.60;99.90;;;;;;5131319;27;20100;-56
2021/12/06 12:29:45;;;;;;;63.22;32.08;;;3.60;99.90;;;;;;5131335;27;20400;-56
2021/12/06 12:32:11;;;;;;;58.80;32.42;;;3.60;99.90;;;;;;5131522;27;20122;-53
2021/12/06 12:34:41;;;;;;;60.85;34.28;;;3.60;99.90;;;;;;5131607;27;20027;-55
2021/12/06 12:37:09;;;;;;;70.07;35.65;;;3.60;99.90;;;;;;5131887;27;20027;-55
2021/12/06 12:39:36;;;;;;;68.28;35.20;;;3.70;99.90;;;;;;5131664;27;20603;-56
2021/12/06 12:42:05;;;;;;;73.07;38.85;;;3.60;99.90;;;;;;5125744;27;20049;-55
2021/12/06 12:44:44;;;;;;;69.32;39.05;;;3.70;99.90;;;;;;5130888;27;20097;-56
2021/12/06 12:47:23;;;;;;;62.65;34.92;;;3.70;99.90;;;;;;5131445;27;20483;-56
2021/12/06 12:49:52;;;;;;;75.38;39.47;;;3.70;99.90;;;;;;5130671;27;20039;-56
2021/12/06 12:52:38;;;;;;;72.80;39.83;;;3.70;99.90;;;;;;5131864;27;20119;-56
2021/12/06 12:55:33;;;;;;;72.50;38.30;;;3.70;99.90;;;;;;5130710;27;20042;-55
2021/12/06 12:58:13;;;;;;;66.68;40.75;;;3.70;99.90;;;;;;5130254;27;20035;-57
2021/12/06 13:01:09;;;;;;;73.93;39.47;;;3.70;99.90;;;;;;5129828;27;20074;-55